Time;durP1;ratioP1;P1;durP2;ratioP2;P2;SDS_P1;SDS_P2;PMS_P1;PMS_P2;Temp;Humidity;BMP_temperature;BMP_pressure;BME280_temperature;BME280_humidity;BME280_pressure;Samples;Min_cycle;Max_cycle;Signal;HPM_P1;HPM_P2
2023/08/09 00:00:41;;;;;;;1.60;1.50;;;;;;;;;;5023485;28;20180;-81
2023/08/09 00:03:44;;;;;;;4.00;1.73;;;;;;;;;;5022301;28;20216;-81
2023/08/09 00:06:49;;;;;;;4.23;1.47;;;;;;;;;;5023065;28;20224;-81
2023/08/09 00:09:53;;;;;;;2.90;1.40;;;;;;;;;;5034093;28;20197;-81
2023/08/09 00:12:57;;;;;;;5.90;1.50;;;;;;;;;;5022629;28;20232;-82
2023/08/09 00:16:01;;;;;;;2.47;1.77;;;;;;;;;;5022112;28;20177;-82
2023/08/09 00:19:06;;;;;;;2.70;1.70;;;;;;;;;;5033330;28;20180;-82
2023/08/09 00:22:10;;;;;;;2.07;1.70;;;;;;;;;;5021723;28;20220;-83
2023/08/09 00:25:14;;;;;;;3.63;1.50;;;;;;;;;;5021906;28;20176;-82
2023/08/09 00:28:18;;;;;;;3.87;1.77;;;;;;;;;;5022011;28;20180;-82
2023/08/09 00:31:23;;;;;;;3.63;1.67;;;;;;;;;;5033879;28;20181;-82
2023/08/09 00:34:27;;;;;;;7.07;1.60;;;;;;;;;;5021793;28;20177;-82
2023/08/09 00:37:32;;;;;;;5.00;1.70;;;;;;;;;;5022235;28;20181;-82
2023/08/09 00:40:37;;;;;;;3.50;1.70;;;;;;;;;;5032791;28;20533;-82
2023/08/09 00:43:41;;;;;;;3.73;1.90;;;;;;;;;;5021534;28;20216;-82
2023/08/09 00:46:45;;;;;;;4.17;1.57;;;;;;;;;;5033182;28;20209;-82
2023/08/09 00:49:50;;;;;;;2.63;1.50;;;;;;;;;;5022376;28;20177;-82
2023/08/09 00:52:54;;;;;;;2.63;1.87;;;;;;;;;;5021729;28;20216;-82
2023/08/09 00:55:59;;;;;;;2.30;1.57;;;;;;;;;;5032750;28;20197;-82
2023/08/09 00:59:03;;;;;;;6.10;1.87;;;;;;;;;;5021505;28;20172;-82
2023/08/09 01:02:08;;;;;;;3.77;1.80;;;;;;;;;;5022237;28;20220;-82
2023/08/09 01:05:13;;;;;;;3.40;1.80;;;;;;;;;;5035077;28;20185;-82
2023/08/09 01:08:44;;;;;;;4.20;1.53;;;;;;;;;;5025421;28;20220;-82
2023/08/09 01:11:54;;;;;;;3.20;1.63;;;;;;;;;;5025501;28;20189;-83
2023/08/09 01:15:00;;;;;;;3.37;1.70;;;;;;;;;;5025732;28;20189;-83
2023/08/09 01:18:06;;;;;;;2.97;1.80;;;;;;;;;;5025247;28;20177;-83
2023/08/09 01:21:11;;;;;;;6.47;1.70;;;;;;;;;;5025429;28;20176;-82
2023/08/09 01:24:15;;;;;;;3.80;1.83;;;;;;;;;;5025725;28;20181;-82
2023/08/09 01:27:19;;;;;;;2.93;1.93;;;;;;;;;;5025146;28;20209;-82
2023/08/09 01:30:24;;;;;;;2.63;1.50;;;;;;;;;;5025474;28;20204;-82
2023/08/09 01:33:30;;;;;;;3.30;1.90;;;;;;;;;;5024866;28;20224;-82
2023/08/09 01:36:38;;;;;;;3.37;1.77;;;;;;;;;;5025096;28;20192;-82
2023/08/09 01:39:44;;;;;;;2.87;1.63;;;;;;;;;;5036175;28;20181;-82
2023/08/09 01:42:51;;;;;;;2.53;1.70;;;;;;;;;;5024903;28;20225;-83
2023/08/09 01:45:55;;;;;;;2.13;1.80;;;;;;;;;;5025211;28;20505;-82
2023/08/09 01:49:14;;;;;;;2.33;1.70;;;;;;;;;;5036230;28;20176;-82
2023/08/09 01:52:18;;;;;;;1.87;1.60;;;;;;;;;;5024682;28;20228;-82
2023/08/09 01:55:25;;;;;;;2.00;1.73;;;;;;;;;;5035902;28;20189;-82
2023/08/09 01:58:29;;;;;;;3.27;2.00;;;;;;;;;;5035820;28;20180;-82
2023/08/09 02:01:33;;;;;;;2.20;1.77;;;;;;;;;;5035936;28;20177;-82
2023/08/09 02:04:38;;;;;;;3.23;1.80;;;;;;;;;;5024562;28;20173;-82
2023/08/09 02:07:42;;;;;;;2.97;1.80;;;;;;;;;;5025178;28;20205;-82
2023/08/09 02:10:46;;;;;;;5.23;1.90;;;;;;;;;;5024235;28;20185;-82
2023/08/09 02:13:50;;;;;;;4.03;2.00;;;;;;;;;;5024116;28;20228;-82
2023/08/09 02:16:54;;;;;;;2.17;1.90;;;;;;;;;;5034542;28;20181;-82
2023/08/09 02:19:59;;;;;;;4.50;1.87;;;;;;;;;;5023801;28;20204;-82
2023/08/09 02:23:03;;;;;;;3.47;1.80;;;;;;;;;;5023867;28;20216;-82
2023/08/09 02:26:08;;;;;;;4.37;2.10;;;;;;;;;;5023790;28;20197;-82
2023/08/09 02:29:12;;;;;;;2.93;1.90;;;;;;;;;;5023944;28;20181;-82
2023/08/09 02:32:16;;;;;;;4.03;1.80;;;;;;;;;;5023812;28;20212;-82
2023/08/09 02:35:20;;;;;;;6.40;1.80;;;;;;;;;;5024027;28;20188;-82
2023/08/09 02:38:27;;;;;;;2.90;1.80;;;;;;;;;;5023651;28;20180;-82
2023/08/09 02:41:31;;;;;;;3.90;1.80;;;;;;;;;;5012348;28;20181;-82
2023/08/09 02:44:35;;;;;;;3.13;2.00;;;;;;;;;;5023561;28;20181;-82
2023/08/09 02:47:39;;;;;;;3.13;1.90;;;;;;;;;;5035087;28;20208;-82
2023/08/09 02:50:44;;;;;;;3.20;1.60;;;;;;;;;;5035027;28;20177;-82
2023/08/09 02:54:05;;;;;;;3.20;1.90;;;;;;;;;;5023016;28;20213;-82
2023/08/09 02:57:10;;;;;;;2.50;1.77;;;;;;;;;;5023195;28;20624;-82
2023/08/09 03:00:17;;;;;;;7.20;1.93;;;;;;;;;;5023259;28;20517;-82
2023/08/09 03:03:21;;;;;;;2.83;1.70;;;;;;;;;;5034140;28;20220;-82
2023/08/09 03:06:25;;;;;;;6.10;1.83;;;;;;;;;;5035052;28;20241;-82
2023/08/09 03:09:30;;;;;;;4.47;1.90;;;;;;;;;;5023152;28;20640;-82
2023/08/09 03:12:35;;;;;;;2.57;1.80;;;;;;;;;;5033965;28;20228;-82
2023/08/09 03:15:39;;;;;;;2.27;1.63;;;;;;;;;;5034604;28;20181;-82
2023/08/09 03:18:43;;;;;;;2.80;1.90;;;;;;;;;;5022930;28;20173;-82
2023/08/09 03:21:47;;;;;;;2.73;1.80;;;;;;;;;;5034644;28;20180;-83
2023/08/09 03:24:51;;;;;;;2.07;1.60;;;;;;;;;;5022591;28;20173;-82
2023/08/09 03:27:55;;;;;;;2.23;1.80;;;;;;;;;;5034107;28;20209;-83
2023/08/09 03:31:00;;;;;;;2.67;1.50;;;;;;;;;;5023348;28;20552;-82
2023/08/09 03:34:07;;;;;;;4.70;2.17;;;;;;;;;;5034334;28;20197;-83
2023/08/09 03:37:11;;;;;;;3.53;1.80;;;;;;;;;;5022894;28;20200;-82
2023/08/09 03:40:16;;;;;;;2.33;1.77;;;;;;;;;;5022675;28;20189;-82
2023/08/09 03:43:20;;;;;;;2.80;1.90;;;;;;;;;;5011557;28;20217;-83
2023/08/09 03:46:24;;;;;;;5.03;1.97;;;;;;;;;;5022386;28;20177;-83
2023/08/09 03:49:28;;;;;;;2.87;2.10;;;;;;;;;;5022577;28;20180;-83
2023/08/09 03:52:33;;;;;;;2.40;2.13;;;;;;;;;;5022113;28;20216;-83
2023/08/09 03:55:37;;;;;;;2.87;2.17;;;;;;;;;;5021958;28;20181;-83
2023/08/09 03:58:42;;;;;;;3.83;1.93;;;;;;;;;;5022470;28;20173;-82
2023/08/09 04:01:46;;;;;;;4.30;1.97;;;;;;;;;;5022122;28;20184;-83
2023/08/09 04:04:50;;;;;;;2.20;1.90;;;;;;;;;;5033443;28;20631;-83
2023/08/09 04:07:54;;;;;;;5.30;2.27;;;;;;;;;;5022317;28;20217;-83
2023/08/09 04:10:59;;;;;;;2.93;2.37;;;;;;;;;;5022220;28;20192;-83
2023/08/09 04:14:04;;;;;;;2.03;1.83;;;;;;;;;;5022046;28;20192;-83
2023/08/09 04:17:08;;;;;;;3.30;2.30;;;;;;;;;;5022657;28;20196;-83
2023/08/09 04:20:12;;;;;;;3.00;2.17;;;;;;;;;;5022428;28;20184;-83
2023/08/09 04:23:18;;;;;;;2.60;2.30;;;;;;;;;;5022154;28;20220;-83
2023/08/09 04:26:22;;;;;;;4.50;2.20;;;;;;;;;;5033569;28;20181;-83
2023/08/09 04:29:27;;;;;;;2.83;2.03;;;;;;;;;;5033268;28;20208;-83
2023/08/09 04:32:32;;;;;;;4.00;2.13;;;;;;;;;;5021818;28;20221;-83
2023/08/09 04:35:37;;;;;;;2.70;2.20;;;;;;;;;;5022257;28;20620;-83
2023/08/09 04:38:41;;;;;;;6.97;2.20;;;;;;;;;;5010045;28;20177;-82
2023/08/09 04:41:45;;;;;;;4.67;2.63;;;;;;;;;;5021702;28;20192;-82
2023/08/09 04:44:49;;;;;;;2.63;2.10;;;;;;;;;;5022143;28;20180;-83
2023/08/09 04:47:54;;;;;;;2.80;2.30;;;;;;;;;;5021758;28;20216;-84
2023/08/09 04:50:58;;;;;;;6.10;2.10;;;;;;;;;;5033167;28;20667;-83
2023/08/09 04:54:02;;;;;;;2.80;2.10;;;;;;;;;;5033451;28;20177;-82
2023/08/09 04:57:06;;;;;;;5.30;2.57;;;;;;;;;;5032526;28;20181;-82
2023/08/09 05:00:11;;;;;;;2.73;2.07;;;;;;;;;;5020169;28;20181;-82
2023/08/09 05:03:15;;;;;;;3.57;2.10;;;;;;;;;;5014557;28;20569;-82
2023/08/09 05:06:19;;;;;;;4.77;2.77;;;;;;;;;;5012781;28;20193;-82
2023/08/09 05:09:23;;;;;;;3.53;2.23;;;;;;;;;;5012730;28;20213;-82
2023/08/09 05:12:28;;;;;;;3.50;2.53;;;;;;;;;;5001527;28;20228;-82
2023/08/09 05:15:32;;;;;;;2.57;2.10;;;;;;;;;;5001883;28;20173;-82
2023/08/09 05:18:36;;;;;;;2.97;2.27;;;;;;;;;;5001752;28;20173;-82
2023/08/09 05:21:40;;;;;;;3.37;2.60;;;;;;;;;;4990357;28;20177;-82
2023/08/09 05:24:45;;;;;;;5.77;2.60;;;;;;;;;;5001366;28;20185;-82
2023/08/09 05:27:49;;;;;;;4.17;2.43;;;;;;;;;;4990925;28;20206;-82
2023/08/09 05:30:53;;;;;;;2.97;2.30;;;;;;;;;;5001912;28;20201;-83
2023/08/09 05:33:57;;;;;;;3.13;2.50;;;;;;;;;;5012655;28;20224;-82
2023/08/09 05:37:02;;;;;;;4.20;2.47;;;;;;;;;;4990744;28;20177;-83
2023/08/09 05:40:13;;;;;;;5.53;2.43;;;;;;;;;;5001568;28;20174;-83
2023/08/09 05:43:17;;;;;;;3.80;2.47;;;;;;;;;;5001829;28;20213;-82
2023/08/09 05:46:21;;;;;;;4.50;2.37;;;;;;;;;;5012846;28;20182;-82
2023/08/09 05:49:25;;;;;;;3.67;2.67;;;;;;;;;;4991186;28;20237;-83
2023/08/09 05:52:29;;;;;;;2.70;2.33;;;;;;;;;;5016139;28;20220;-82
2023/08/09 05:55:33;;;;;;;3.93;2.53;;;;;;;;;;5016036;28;20680;-82
2023/08/09 05:58:37;;;;;;;5.67;2.30;;;;;;;;;;5016132;28;20197;-82
2023/08/09 06:01:41;;;;;;;4.77;2.47;;;;;;;;;;5004712;28;20173;-83
2023/08/09 06:04:46;;;;;;;3.47;2.63;;;;;;;;;;5015473;28;20209;-82
2023/08/09 06:07:50;;;;;;;4.10;2.33;;;;;;;;;;4993574;28;20185;-82
2023/08/09 06:10:54;;;;;;;3.23;2.17;;;;;;;;;;5004608;28;20198;-83
2023/08/09 06:13:59;;;;;;;3.40;2.63;;;;;;;;;;5003904;28;20727;-82
2023/08/09 06:17:03;;;;;;;3.93;2.60;;;;;;;;;;5015782;28;20526;-83
2023/08/09 06:20:07;;;;;;;3.47;2.40;;;;;;;;;;5004675;28;20193;-82
2023/08/09 06:23:11;;;;;;;3.90;2.60;;;;;;;;;;5011808;28;20220;-82
2023/08/09 06:26:15;;;;;;;4.30;2.00;;;;;;;;;;5005548;28;20201;-82
2023/08/09 06:29:19;;;;;;;2.97;2.50;;;;;;;;;;4993059;28;20209;-82
2023/08/09 06:32:24;;;;;;;3.30;2.27;;;;;;;;;;5004197;28;20700;-83
2023/08/09 06:35:30;;;;;;;3.50;2.37;;;;;;;;;;5021428;28;20205;-82
2023/08/09 06:38:35;;;;;;;3.67;2.53;;;;;;;;;;5037820;28;20181;-82
2023/08/09 06:41:39;;;;;;;2.63;1.87;;;;;;;;;;5034465;28;20181;-82
2023/08/09 06:44:43;;;;;;;3.97;2.90;;;;;;;;;;5035005;28;20185;-82
2023/08/09 06:47:47;;;;;;;3.13;2.20;;;;;;;;;;5013676;28;20201;-82
2023/08/09 06:50:51;;;;;;;4.20;2.40;;;;;;;;;;5020146;28;20201;-82
2023/08/09 06:53:55;;;;;;;3.80;2.60;;;;;;;;;;5023523;28;20217;-82
2023/08/09 06:56:59;;;;;;;4.97;2.30;;;;;;;;;;5021837;28;20204;-82
2023/08/09 07:00:05;;;;;;;5.73;2.03;;;;;;;;;;5011153;28;20196;-83
2023/08/09 07:03:10;;;;;;;2.90;1.90;;;;;;;;;;5011345;28;20224;-82
2023/08/09 07:06:14;;;;;;;2.33;2.00;;;;;;;;;;5014963;28;20189;-83
2023/08/09 07:09:19;;;;;;;3.63;2.43;;;;;;;;;;5003366;28;20676;-82
2023/08/09 07:12:22;;;;;;;3.30;2.33;;;;;;;;;;5014332;28;20704;-83
2023/08/09 07:15:27;;;;;;;2.60;2.03;;;;;;;;;;5003559;28;20201;-83
2023/08/09 07:18:31;;;;;;;5.37;1.80;;;;;;;;;;5003413;28;20537;-82
2023/08/09 07:21:35;;;;;;;5.73;2.17;;;;;;;;;;5003430;28;20620;-82
2023/08/09 07:24:41;;;;;;;3.50;2.20;;;;;;;;;;5005130;28;20244;-82
2023/08/09 07:27:47;;;;;;;3.63;2.40;;;;;;;;;;5003636;28;20533;-83
2023/08/09 07:30:51;;;;;;;1.90;1.77;;;;;;;;;;4991617;28;20174;-82
2023/08/09 07:33:55;;;;;;;3.20;2.00;;;;;;;;;;5007566;28;20221;-83
2023/08/09 07:36:59;;;;;;;2.97;1.87;;;;;;;;;;5021887;28;20205;-82
2023/08/09 07:40:04;;;;;;;3.47;1.97;;;;;;;;;;5033704;28;20173;-82
2023/08/09 07:43:09;;;;;;;4.00;2.30;;;;;;;;;;5034285;28;20221;-82
2023/08/09 07:46:12;;;;;;;7.30;3.83;;;;;;;;;;5013086;28;20193;-82
2023/08/09 07:49:17;;;;;;;3.40;2.30;;;;;;;;;;5013883;28;20209;-82
2023/08/09 07:52:21;;;;;;;3.67;1.87;;;;;;;;;;5017868;28;20232;-82
2023/08/09 07:55:26;;;;;;;2.97;1.77;;;;;;;;;;5008279;28;20196;-82
2023/08/09 07:58:30;;;;;;;2.40;1.77;;;;;;;;;;5013518;28;20193;-84
2023/08/09 08:01:34;;;;;;;2.97;1.60;;;;;;;;;;4997926;28;20197;-82
2023/08/09 08:04:38;;;;;;;2.57;1.90;;;;;;;;;;5024550;28;20554;-82
2023/08/09 08:07:43;;;;;;;3.33;2.00;;;;;;;;;;4991973;28;20177;-83
2023/08/09 08:10:47;;;;;;;16.47;11.40;;;;;;;;;;5025346;28;20189;-82
2023/08/09 08:13:51;;;;;;;10.60;6.80;;;;;;;;;;5023553;28;20235;-82
2023/08/09 08:16:56;;;;;;;3.70;2.80;;;;;;;;;;5021520;28;20172;-82
2023/08/09 08:20:00;;;;;;;3.17;2.03;;;;;;;;;;5021587;28;20251;-82
2023/08/09 08:23:06;;;;;;;4.23;3.80;;;;;;;;;;5010285;28;20216;-82
2023/08/09 08:26:10;;;;;;;2.00;1.77;;;;;;;;;;5010205;28;20181;-82
2023/08/09 08:29:14;;;;;;;3.33;1.73;;;;;;;;;;5021447;28;20205;-82
2023/08/09 08:32:18;;;;;;;3.50;2.00;;;;;;;;;;5021385;28;20212;-82
2023/08/09 08:35:24;;;;;;;4.97;1.93;;;;;;;;;;5009503;28;20197;-83
2023/08/09 08:38:28;;;;;;;5.60;2.17;;;;;;;;;;5021373;28;20177;-82
2023/08/09 08:41:34;;;;;;;3.63;2.23;;;;;;;;;;5033665;28;20181;-83
2023/08/09 08:44:39;;;;;;;4.73;2.43;;;;;;;;;;4990641;28;20205;-83
2023/08/09 08:47:45;;;;;;;3.93;2.20;;;;;;;;;;5001691;28;20197;-83
2023/08/09 08:50:50;;;;;;;2.63;2.33;;;;;;;;;;5014068;28;20205;-82
2023/08/09 08:53:54;;;;;;;2.27;1.77;;;;;;;;;;5013233;28;20553;-83
2023/08/09 08:56:58;;;;;;;2.67;1.80;;;;;;;;;;5001937;28;20201;-83
2023/08/09 09:00:08;;;;;;;2.90;1.80;;;;;;;;;;5013066;28;20522;-83
2023/08/09 09:03:13;;;;;;;4.97;1.70;;;;;;;;;;5014668;28;20217;-82
2023/08/09 09:06:17;;;;;;;5.40;1.83;;;;;;;;;;5013402;28;20181;-83
2023/08/09 09:09:21;;;;;;;2.93;1.80;;;;;;;;;;4994072;28;20221;-83
2023/08/09 09:12:26;;;;;;;2.10;1.57;;;;;;;;;;5001401;28;20576;-83
2023/08/09 09:15:31;;;;;;;2.70;2.03;;;;;;;;;;5012679;28;20201;-83
2023/08/09 09:18:42;;;;;;;4.57;1.70;;;;;;;;;;5001796;28;20193;-83
2023/08/09 09:21:46;;;;;;;4.60;1.67;;;;;;;;;;5012699;28;20182;-83
2023/08/09 09:24:50;;;;;;;3.33;1.70;;;;;;;;;;5014301;28;20204;-83
2023/08/09 09:27:56;;;;;;;3.17;1.60;;;;;;;;;;5021400;28;20200;-83
2023/08/09 09:31:00;;;;;;;5.63;4.43;;;;;;;;;;5007188;28;20213;-83
2023/08/09 09:34:09;;;;;;;6.80;2.30;;;;;;;;;;5018878;28;20197;-83
2023/08/09 09:37:22;;;;;;;4.90;2.10;;;;;;;;;;5017581;28;20185;-83
2023/08/09 09:40:30;;;;;;;4.43;2.00;;;;;;;;;;5020663;28;20201;-83
2023/08/09 09:43:39;;;;;;;4.33;1.97;;;;;;;;;;5011679;28;20232;-83
2023/08/09 09:46:43;;;;;;;2.93;1.73;;;;;;;;;;5030212;28;20206;-83
2023/08/09 09:49:52;;;;;;;2.23;1.70;;;;;;;;;;5019982;28;20220;-83
2023/08/09 09:52:57;;;;;;;2.77;2.07;;;;;;;;;;5024393;28;20212;-83
2023/08/09 09:56:01;;;;;;;10.57;6.50;;;;;;;;;;5015820;28;20197;-82
2023/08/09 09:59:07;;;;;;;7.37;4.50;;;;;;;;;;5005235;28;20177;-81
2023/08/09 10:02:11;;;;;;;3.80;2.60;;;;;;;;;;5016200;28;20213;-81
2023/08/09 10:05:25;;;;;;;2.50;1.90;;;;;;;;;;5009123;28;20177;-82
2023/08/09 10:08:29;;;;;;;2.43;2.00;;;;;;;;;;5008892;28;20625;-81
2023/08/09 10:11:37;;;;;;;4.43;2.20;;;;;;;;;;5018831;28;20656;-82
2023/08/09 10:14:41;;;;;;;4.20;1.93;;;;;;;;;;5007904;28;20193;-81
2023/08/09 10:17:49;;;;;;;3.13;1.83;;;;;;;;;;5008509;28;20178;-82
2023/08/09 10:20:55;;;;;;;2.67;1.80;;;;;;;;;;5005444;28;20177;-81
2023/08/09 10:24:12;;;;;;;2.40;1.83;;;;;;;;;;5004527;28;20181;-81
2023/08/09 10:27:51;;;;;;;3.90;2.10;;;;;;;;;;5005129;28;20197;-81
2023/08/09 10:30:55;;;;;;;3.40;2.30;;;;;;;;;;5004343;28;20221;-81
2023/08/09 10:34:06;;;;;;;2.83;1.80;;;;;;;;;;5005232;28;20197;-81
2023/08/09 10:37:11;;;;;;;3.10;1.80;;;;;;;;;;5003920;28;20197;-81
2023/08/09 10:40:18;;;;;;;5.57;1.83;;;;;;;;;;5016130;28;20639;-81
2023/08/09 10:43:24;;;;;;;4.20;1.70;;;;;;;;;;5016064;28;20213;-81
2023/08/09 10:46:32;;;;;;;3.57;1.87;;;;;;;;;;5026585;28;20201;-81
2023/08/09 10:49:49;;;;;;;3.90;1.80;;;;;;;;;;5004439;28;20213;-81
2023/08/09 10:52:53;;;;;;;3.80;1.93;;;;;;;;;;5003772;28;20558;-81
2023/08/09 10:55:58;;;;;;;2.67;1.70;;;;;;;;;;5015197;28;20535;-82
2023/08/09 10:59:07;;;;;;;2.17;1.93;;;;;;;;;;5004155;28;20178;-82
2023/08/09 11:02:15;;;;;;;3.90;1.90;;;;;;;;;;5003693;28;20221;-82
2023/08/09 11:05:20;;;;;;;2.23;1.80;;;;;;;;;;5003263;28;20197;-82
2023/08/09 11:08:29;;;;;;;2.73;1.70;;;;;;;;;;5003676;28;20178;-82
2023/08/09 11:11:34;;;;;;;2.20;2.00;;;;;;;;;;5003942;28;20189;-82
2023/08/09 11:14:39;;;;;;;3.93;2.10;;;;;;;;;;5003724;28;20194;-82
2023/08/09 11:17:50;;;;;;;2.90;1.73;;;;;;;;;;5015017;28;20181;-81
2023/08/09 11:20:56;;;;;;;3.50;1.90;;;;;;;;;;5003353;28;20182;-82
2023/08/09 11:24:00;;;;;;;4.50;1.97;;;;;;;;;;5003555;28;20201;-82
2023/08/09 11:27:04;;;;;;;2.67;1.80;;;;;;;;;;5003377;28;20186;-82
2023/08/09 11:30:08;;;;;;;2.27;1.90;;;;;;;;;;5003195;28;20209;-82
2023/08/09 11:33:13;;;;;;;2.93;1.97;;;;;;;;;;5014307;28;20216;-82
2023/08/09 11:36:17;;;;;;;3.60;2.00;;;;;;;;;;5002970;28;20178;-82
2023/08/09 11:39:24;;;;;;;2.63;2.03;;;;;;;;;;5015078;28;20181;-81
2023/08/09 11:42:28;;;;;;;3.07;2.00;;;;;;;;;;5003314;28;20217;-82
2023/08/09 11:45:43;;;;;;;2.53;1.83;;;;;;;;;;5014466;28;20181;-82
2023/08/09 11:48:49;;;;;;;2.20;2.00;;;;;;;;;;5013645;28;20185;-82
2023/08/09 11:51:53;;;;;;;3.67;2.17;;;;;;;;;;5002947;28;20177;-82
2023/08/09 11:54:58;;;;;;;3.67;2.03;;;;;;;;;;5014422;28;20169;-82
2023/08/09 11:58:03;;;;;;;3.93;2.03;;;;;;;;;;5002781;28;20186;-82
2023/08/09 12:01:17;;;;;;;2.40;1.87;;;;;;;;;;5015002;28;20173;-82
2023/08/09 12:04:24;;;;;;;5.83;2.13;;;;;;;;;;5015385;28;20186;-81
2023/08/09 12:07:28;;;;;;;2.03;1.77;;;;;;;;;;5014955;28;20197;-82
2023/08/09 12:10:40;;;;;;;2.40;2.00;;;;;;;;;;5014944;28;20210;-82
2023/08/09 12:13:46;;;;;;;4.20;1.60;;;;;;;;;;5014635;28;20214;-88
2023/08/09 12:16:50;;;;;;;3.40;1.90;;;;;;;;;;5003453;28;20184;-82
2023/08/09 12:20:06;;;;;;;3.23;2.00;;;;;;;;;;5003632;28;20183;-82
2023/08/09 12:23:10;;;;;;;5.40;3.47;;;;;;;;;;5027291;28;20224;-82
2023/08/09 12:26:15;;;;;;;4.53;2.67;;;;;;;;;;5018047;28;20184;-82
2023/08/09 12:29:20;;;;;;;2.20;1.87;;;;;;;;;;5017303;28;20178;-82
2023/08/09 12:32:24;;;;;;;6.17;2.17;;;;;;;;;;5005714;28;20213;-82
2023/08/09 12:35:28;;;;;;;2.30;2.10;;;;;;;;;;5017344;28;20175;-82
2023/08/09 12:38:32;;;;;;;2.87;2.17;;;;;;;;;;5005640;28;20186;-82
2023/08/09 12:41:37;;;;;;;3.37;2.23;;;;;;;;;;5017198;28;20534;-82
2023/08/09 12:44:42;;;;;;;2.83;2.30;;;;;;;;;;5016721;28;20197;-82
2023/08/09 12:47:47;;;;;;;2.20;1.97;;;;;;;;;;5005700;28;20181;-83
2023/08/09 12:50:51;;;;;;;5.77;2.77;;;;;;;;;;5016305;28;20205;-82
2023/08/09 12:53:56;;;;;;;4.33;2.50;;;;;;;;;;5016681;28;20213;-82
2023/08/09 12:57:00;;;;;;;4.63;2.93;;;;;;;;;;5005772;28;20628;-82
2023/08/09 13:00:05;;;;;;;2.97;2.40;;;;;;;;;;5017132;28;20197;-82
2023/08/09 13:03:09;;;;;;;6.00;2.07;;;;;;;;;;5019695;28;20220;-82
2023/08/09 13:06:18;;;;;;;3.67;2.17;;;;;;;;;;5006066;28;20178;-82
2023/08/09 13:09:22;;;;;;;3.03;2.60;;;;;;;;;;5005701;28;20182;-82
2023/08/09 13:12:26;;;;;;;3.20;2.40;;;;;;;;;;5017097;28;20224;-81
2023/08/09 13:15:30;;;;;;;4.47;2.80;;;;;;;;;;5006455;28;20186;-81
2023/08/09 13:18:37;;;;;;;3.37;2.67;;;;;;;;;;5017420;28;20185;-81
2023/08/09 13:21:42;;;;;;;3.13;2.43;;;;;;;;;;5016946;28;20178;-81
2023/08/09 13:24:46;;;;;;;6.27;2.30;;;;;;;;;;5005808;28;20182;-81
2023/08/09 13:27:50;;;;;;;3.10;2.33;;;;;;;;;;5017033;28;20182;-81
2023/08/09 13:30:54;;;;;;;3.30;2.13;;;;;;;;;;5016823;28;20213;-81
2023/08/09 13:33:58;;;;;;;2.70;1.93;;;;;;;;;;5017854;28;20217;-81
2023/08/09 13:37:03;;;;;;;3.93;2.13;;;;;;;;;;5017126;28;20525;-81
2023/08/09 13:40:14;;;;;;;4.07;2.17;;;;;;;;;;5005621;28;20185;-81
2023/08/09 13:43:19;;;;;;;3.13;2.53;;;;;;;;;;5016930;28;20562;-81
2023/08/09 13:46:23;;;;;;;2.90;2.10;;;;;;;;;;5017311;28;20181;-81
2023/08/09 13:49:27;;;;;;;2.40;1.73;;;;;;;;;;5005793;28;20510;-81
2023/08/09 13:52:31;;;;;;;2.17;1.97;;;;;;;;;;5005361;28;20209;-81
2023/08/09 13:55:35;;;;;;;2.47;2.13;;;;;;;;;;5017152;28;20185;-81
2023/08/09 13:58:39;;;;;;;5.23;2.77;;;;;;;;;;5017271;28;20182;-81
2023/08/09 14:01:44;;;;;;;3.60;2.43;;;;;;;;;;5005720;28;20181;-81
2023/08/09 14:04:48;;;;;;;3.03;2.13;;;;;;;;;;5005348;28;20637;-81
2023/08/09 14:07:52;;;;;;;2.50;2.30;;;;;;;;;;5016833;28;20181;-81
2023/08/09 14:10:56;;;;;;;6.07;2.60;;;;;;;;;;5016236;28;20209;-81
2023/08/09 14:14:01;;;;;;;4.70;3.07;;;;;;;;;;5005373;28;20668;-81
2023/08/09 14:17:06;;;;;;;4.13;3.00;;;;;;;;;;5005696;28;20185;-81
2023/08/09 14:20:16;;;;;;;4.07;3.10;;;;;;;;;;5016184;28;20182;-81
2023/08/09 14:23:20;;;;;;;4.07;2.80;;;;;;;;;;5004739;28;20225;-81
2023/08/09 14:26:24;;;;;;;5.50;3.03;;;;;;;;;;5016042;28;20182;-81
2023/08/09 14:29:29;;;;;;;12.33;9.67;;;;;;;;;;5015877;28;20181;-81
2023/08/09 14:32:33;;;;;;;8.80;6.07;;;;;;;;;;5004776;28;20704;-81
2023/08/09 14:35:38;;;;;;;6.33;5.73;;;;;;;;;;5016335;28;20182;-81
2023/08/09 14:38:42;;;;;;;3.83;2.80;;;;;;;;;;5005034;28;20181;-81
2023/08/09 14:41:45;;;;;;;3.33;2.60;;;;;;;;;;5016020;28;20174;-81
2023/08/09 14:44:50;;;;;;;8.30;2.47;;;;;;;;;;5016325;28;20182;-81
2023/08/09 14:47:54;;;;;;;3.57;2.50;;;;;;;;;;5005131;28;20177;-81
2023/08/09 14:51:00;;;;;;;2.63;1.77;;;;;;;;;;5015674;28;20205;-83
2023/08/09 14:54:04;;;;;;;4.40;2.30;;;;;;;;;;5004759;28;20185;-81
2023/08/09 14:57:08;;;;;;;2.87;2.40;;;;;;;;;;5004562;28;20181;-81
2023/08/09 15:00:13;;;;;;;2.40;2.20;;;;;;;;;;5016230;28;20185;-81
2023/08/09 15:03:18;;;;;;;4.87;2.10;;;;;;;;;;5003830;28;20213;-81
2023/08/09 15:06:22;;;;;;;3.00;1.70;;;;;;;;;;5004419;28;20205;-81
2023/08/09 15:09:28;;;;;;;2.53;1.70;;;;;;;;;;5004381;28;20181;-81
2023/08/09 15:12:33;;;;;;;2.90;2.00;;;;;;;;;;5003730;28;20233;-81
2023/08/09 15:15:37;;;;;;;2.50;1.67;;;;;;;;;;5004198;28;20186;-81
2023/08/09 15:18:41;;;;;;;3.70;2.67;;;;;;;;;;5004496;28;20174;-81
2023/08/09 15:21:45;;;;;;;3.63;2.03;;;;;;;;;;5003761;28;20182;-81
2023/08/09 15:24:50;;;;;;;3.07;2.10;;;;;;;;;;5014640;28;20185;-81
2023/08/09 15:27:54;;;;;;;2.30;1.80;;;;;;;;;;5015396;28;20625;-81
2023/08/09 15:30:59;;;;;;;2.47;2.00;;;;;;;;;;5014819;28;20217;-81
2023/08/09 15:34:03;;;;;;;4.73;2.50;;;;;;;;;;5003610;28;20181;-81
2023/08/09 15:37:07;;;;;;;3.33;1.97;;;;;;;;;;5015035;28;20181;-81
2023/08/09 15:40:12;;;;;;;2.23;2.00;;;;;;;;;;5003377;28;20181;-81
2023/08/09 15:43:16;;;;;;;3.90;1.87;;;;;;;;;;5004206;28;20213;-81
2023/08/09 15:46:20;;;;;;;2.97;2.23;;;;;;;;;;5003507;28;20178;-81
2023/08/09 15:49:25;;;;;;;1.90;1.80;;;;;;;;;;5003711;28;20186;-81
2023/08/09 15:52:29;;;;;;;4.47;2.03;;;;;;;;;;5003901;28;20593;-81
2023/08/09 15:55:33;;;;;;;2.47;2.00;;;;;;;;;;4992571;28;20181;-81
2023/08/09 15:58:37;;;;;;;3.73;1.90;;;;;;;;;;5006723;28;20185;-84
2023/08/09 16:01:42;;;;;;;7.60;2.23;;;;;;;;;;5019424;28;20541;-84
2023/08/09 16:04:46;;;;;;;5.30;2.03;;;;;;;;;;5019573;28;20205;-84
2023/08/09 16:07:50;;;;;;;2.47;2.20;;;;;;;;;;5008507;28;20182;-83
2023/08/09 16:10:54;;;;;;;4.80;1.97;;;;;;;;;;5006802;28;20205;-83
2023/08/09 16:14:00;;;;;;;2.53;2.17;;;;;;;;;;5004625;28;20225;-84
2023/08/09 16:17:05;;;;;;;2.37;1.97;;;;;;;;;;5015312;28;20201;-84
2023/08/09 16:20:12;;;;;;;6.33;2.13;;;;;;;;;;5003238;28;20197;-84
2023/08/09 16:23:16;;;;;;;4.00;2.20;;;;;;;;;;5015994;28;20554;-84
2023/08/09 16:26:21;;;;;;;3.43;1.80;;;;;;;;;;5003787;28;20181;-87
2023/08/09 16:29:25;;;;;;;2.77;2.03;;;;;;;;;;5014303;28;20181;-86
2023/08/09 16:32:28;;;;;;;2.17;1.70;;;;;;;;;;5001837;28;20233;-85
2023/08/09 16:35:38;;;;;;;3.60;1.90;;;;;;;;;;5001554;28;20182;-85
2023/08/09 16:38:42;;;;;;;2.30;2.10;;;;;;;;;;5002280;28;20186;-85
2023/08/09 16:41:46;;;;;;;4.27;2.00;;;;;;;;;;5002241;28;20510;-85
2023/08/09 16:44:50;;;;;;;5.53;4.07;;;;;;;;;;5001990;28;20181;-85
2023/08/09 16:47:54;;;;;;;8.63;5.10;;;;;;;;;;5013397;28;20181;-85
2023/08/09 16:50:58;;;;;;;6.77;3.50;;;;;;;;;;5002306;28;20185;-85
2023/08/09 16:54:05;;;;;;;16.93;9.53;;;;;;;;;;5002007;28;20178;-85
2023/08/09 16:57:10;;;;;;;13.10;8.40;;;;;;;;;;5001765;28;20178;-85
2023/08/09 17:00:15;;;;;;;15.53;8.90;;;;;;;;;;5013619;28;20178;-85
2023/08/09 17:03:19;;;;;;;211.13;87.70;;;;;;;;;;5012543;28;20217;-85
2023/08/09 17:06:23;;;;;;;356.37;137.50;;;;;;;;;;5001898;28;20583;-85
2023/08/09 17:09:27;;;;;;;179.13;71.93;;;;;;;;;;5001568;28;20212;-85
2023/08/09 17:12:31;;;;;;;91.27;37.97;;;;;;;;;;5001757;28;20232;-85
2023/08/09 17:15:36;;;;;;;80.70;31.40;;;;;;;;;;5001763;28;20185;-85
2023/08/09 17:18:40;;;;;;;92.67;38.90;;;;;;;;;;5012957;28;20537;-84
2023/08/09 17:21:44;;;;;;;110.53;58.07;;;;;;;;;;5002226;28;20180;-85
2023/08/09 17:24:48;;;;;;;45.07;28.10;;;;;;;;;;5001436;28;20284;-85
2023/08/09 17:27:52;;;;;;;17.37;12.60;;;;;;;;;;4990535;28;20192;-85
2023/08/09 17:30:56;;;;;;;10.13;8.57;;;;;;;;;;5013174;28;20185;-85
2023/08/09 17:34:01;;;;;;;7.83;5.73;;;;;;;;;;5001609;28;20178;-85
2023/08/09 17:37:05;;;;;;;8.77;4.73;;;;;;;;;;5014876;28;20514;-85
2023/08/09 17:40:10;;;;;;;6.77;3.30;;;;;;;;;;5012904;28;20534;-85
2023/08/09 17:43:14;;;;;;;7.53;4.20;;;;;;;;;;4990809;28;20213;-86
2023/08/09 17:46:20;;;;;;;5.10;3.50;;;;;;;;;;5024629;28;20173;-85
2023/08/09 17:49:24;;;;;;;4.83;3.43;;;;;;;;;;5006548;28;20177;-85
2023/08/09 17:52:28;;;;;;;6.20;3.70;;;;;;;;;;5006827;28;20225;-84
2023/08/09 17:55:32;;;;;;;4.50;3.40;;;;;;;;;;5015915;28;20181;-86
2023/08/09 17:58:36;;;;;;;4.13;2.63;;;;;;;;;;5004767;28;20201;-85
2023/08/09 18:01:41;;;;;;;4.67;3.20;;;;;;;;;;4993774;28;20182;-85
2023/08/09 18:04:45;;;;;;;4.20;2.80;;;;;;;;;;5005087;28;20186;-86
2023/08/09 18:07:49;;;;;;;3.17;2.70;;;;;;;;;;5004886;28;20181;-86
2023/08/09 18:10:54;;;;;;;6.47;2.90;;;;;;;;;;5015871;28;20181;-86
2023/08/09 18:13:57;;;;;;;4.03;2.77;;;;;;;;;;5004415;28;20229;-85
2023/08/09 18:17:02;;;;;;;3.93;2.93;;;;;;;;;;5004477;28;20178;-85
2023/08/09 18:20:14;;;;;;;3.40;2.97;;;;;;;;;;5006433;28;20173;-85
2023/08/09 18:23:18;;;;;;;4.20;3.30;;;;;;;;;;5006213;28;20214;-85
2023/08/09 18:26:23;;;;;;;3.20;2.87;;;;;;;;;;5027801;28;20509;-86